Time;durP1;ratioP1;P1;durP2;ratioP2;P2;SDS_P1;SDS_P2;PMS_P1;PMS_P2;Temp;Humidity;BMP_temperature;BMP_pressure;BME280_temperature;BME280_humidity;BME280_pressure;Samples;Min_cycle;Max_cycle;Signal;HPM_P1;HPM_P2
2023/09/13 00:01:02;;;;;;;7.27;5.40;;;;;;;;;;4917733;29;20575;-76
2023/09/13 00:03:28;;;;;;;8.47;5.93;;;;;;;;;;4917333;29;20195;-76
2023/09/13 00:05:54;;;;;;;6.23;5.63;;;;;;;;;;4917269;29;20221;-76
2023/09/13 00:08:20;;;;;;;6.53;5.93;;;;;;;;;;4917953;29;20667;-75
2023/09/13 00:10:46;;;;;;;6.80;5.50;;;;;;;;;;4906439;29;20247;-75
2023/09/13 00:13:13;;;;;;;6.37;5.77;;;;;;;;;;4924571;29;20187;-76
2023/09/13 00:15:43;;;;;;;6.00;5.50;;;;;;;;;;4915876;29;20214;-80
2023/09/13 00:18:09;;;;;;;8.33;6.00;;;;;;;;;;4913304;29;20218;-77
2023/09/13 00:20:37;;;;;;;7.67;5.70;;;;;;;;;;4913938;29;20339;-76
2023/09/13 00:23:04;;;;;;;9.13;5.80;;;;;;;;;;4913721;29;20186;-80
2023/09/13 00:25:31;;;;;;;6.87;5.73;;;;;;;;;;4916580;29;20199;-77
2023/09/13 00:27:57;;;;;;;6.53;5.90;;;;;;;;;;4915499;29;20265;-75
2023/09/13 00:30:23;;;;;;;6.27;5.40;;;;;;;;;;4910973;29;20222;-76
2023/09/13 00:32:49;;;;;;;6.30;5.63;;;;;;;;;;4914103;29;20301;-77
2023/09/13 00:35:15;;;;;;;6.77;5.50;;;;;;;;;;4895212;29;20210;-76
2023/09/13 00:37:41;;;;;;;6.10;5.07;;;;;;;;;;4915313;29;20702;-76
2023/09/13 00:40:08;;;;;;;9.07;6.00;;;;;;;;;;4913338;29;20338;-79
2023/09/13 00:42:35;;;;;;;6.13;5.53;;;;;;;;;;4914125;29;20190;-78
2023/09/13 00:45:02;;;;;;;7.53;6.00;;;;;;;;;;4916829;29;20206;-76
2023/09/13 00:47:28;;;;;;;6.00;5.40;;;;;;;;;;4912757;29;20265;-77
2023/09/13 00:49:54;;;;;;;6.60;5.87;;;;;;;;;;4913537;29;20246;-78
2023/09/13 00:52:21;;;;;;;8.37;5.77;;;;;;;;;;4914302;29;20187;-80
2023/09/13 00:54:47;;;;;;;6.13;5.53;;;;;;;;;;4912366;29;20253;-75
2023/09/13 00:57:13;;;;;;;6.23;5.63;;;;;;;;;;4913333;29;20210;-76
2023/09/13 00:59:40;;;;;;;5.77;5.23;;;;;;;;;;4914586;29;20215;-76
2023/09/13 01:02:06;;;;;;;5.80;5.03;;;;;;;;;;4907612;29;20253;-78
2023/09/13 01:04:36;;;;;;;6.20;5.60;;;;;;;;;;4913262;29;20261;-77
2023/09/13 01:07:02;;;;;;;6.50;5.40;;;;;;;;;;4898672;29;20217;-75
2023/09/13 01:09:29;;;;;;;6.30;5.70;;;;;;;;;;4913744;29;20214;-75
2023/09/13 01:11:55;;;;;;;7.03;5.50;;;;;;;;;;4914046;29;20190;-76
2023/09/13 01:14:21;;;;;;;6.27;5.17;;;;;;;;;;4913862;29;20194;-76
2023/09/13 01:16:57;;;;;;;6.90;5.50;;;;;;;;;;4915351;29;20214;-76
2023/09/13 01:19:29;;;;;;;5.87;5.20;;;;;;;;;;4925487;29;20226;-78
2023/09/13 01:22:15;;;;;;;6.67;5.40;;;;;;;;;;4914887;29;20183;-79
2023/09/13 01:24:52;;;;;;;6.43;5.30;;;;;;;;;;4911756;29;20471;-76
2023/09/13 01:27:21;;;;;;;6.30;5.70;;;;;;;;;;4916175;29;20258;-75
2023/09/13 01:29:50;;;;;;;6.10;5.50;;;;;;;;;;4917647;29;20194;-75
2023/09/13 01:32:16;;;;;;;7.27;5.63;;;;;;;;;;4913301;29;20249;-76
2023/09/13 01:34:43;;;;;;;6.53;5.67;;;;;;;;;;4911129;29;20210;-76
2023/09/13 01:37:09;;;;;;;7.73;5.67;;;;;;;;;;4905737;29;20210;-77
2023/09/13 01:39:36;;;;;;;7.30;5.97;;;;;;;;;;4912534;29;20217;-78
2023/09/13 01:42:07;;;;;;;6.93;6.00;;;;;;;;;;4916213;29;20206;-76
2023/09/13 01:44:34;;;;;;;7.10;6.40;;;;;;;;;;4913691;29;20187;-77
2023/09/13 01:47:03;;;;;;;7.33;6.07;;;;;;;;;;4912303;29;20309;-76
2023/09/13 01:49:30;;;;;;;6.87;6.13;;;;;;;;;;4909957;29;20194;-76
2023/09/13 01:51:56;;;;;;;6.87;6.17;;;;;;;;;;4912140;29;20281;-76
2023/09/13 01:54:22;;;;;;;6.40;5.80;;;;;;;;;;4912917;29;20214;-76
2023/09/13 01:56:49;;;;;;;6.87;5.90;;;;;;;;;;4915527;29;20215;-75
2023/09/13 01:59:15;;;;;;;9.67;7.00;;;;;;;;;;4914750;29;20218;-77
2023/09/13 02:01:41;;;;;;;7.00;6.30;;;;;;;;;;4912078;29;20257;-75
2023/09/13 02:04:07;;;;;;;7.23;6.03;;;;;;;;;;4910651;29;20178;-76
2023/09/13 02:06:33;;;;;;;7.60;6.40;;;;;;;;;;4910614;29;20210;-78
2023/09/13 02:09:00;;;;;;;7.83;6.17;;;;;;;;;;4916199;29;20198;-75
2023/09/13 02:11:26;;;;;;;6.63;6.00;;;;;;;;;;4917307;29;20256;-76
2023/09/13 02:13:52;;;;;;;6.60;6.03;;;;;;;;;;4919404;29;20183;-76
2023/09/13 02:16:21;;;;;;;8.10;6.03;;;;;;;;;;4917064;29;20210;-76
2023/09/13 02:18:47;;;;;;;9.10;6.80;;;;;;;;;;4916590;29;20274;-78
2023/09/13 02:21:14;;;;;;;7.03;6.33;;;;;;;;;;4915037;29;20233;-77
2023/09/13 02:23:41;;;;;;;7.50;6.40;;;;;;;;;;4905974;29;20809;-76
2023/09/13 02:26:17;;;;;;;7.43;6.27;;;;;;;;;;4917844;29;20205;-77
2023/09/13 02:28:43;;;;;;;6.67;6.00;;;;;;;;;;4914014;29;20186;-79
2023/09/13 02:31:10;;;;;;;9.20;6.20;;;;;;;;;;4914234;29;20261;-77
2023/09/13 02:33:36;;;;;;;7.00;6.30;;;;;;;;;;4912974;29;20198;-76
2023/09/13 02:36:02;;;;;;;6.83;5.90;;;;;;;;;;4909160;29;20215;-76
2023/09/13 02:38:28;;;;;;;9.70;5.80;;;;;;;;;;4913932;29;20183;-75
2023/09/13 02:40:54;;;;;;;6.00;5.40;;;;;;;;;;4916083;29;20592;-77
2023/09/13 02:43:21;;;;;;;6.83;5.30;;;;;;;;;;4915818;29;20205;-77
2023/09/13 02:45:47;;;;;;;5.70;5.07;;;;;;;;;;4918141;29;20209;-76
2023/09/13 02:48:13;;;;;;;5.63;5.13;;;;;;;;;;4921120;29;20557;-75
2023/09/13 02:50:42;;;;;;;5.63;5.00;;;;;;;;;;4919793;29;20198;-77
2023/09/13 02:53:09;;;;;;;5.87;5.37;;;;;;;;;;4913277;29;20682;-78
2023/09/13 02:55:35;;;;;;;7.87;5.70;;;;;;;;;;4914186;29;20694;-77
2023/09/13 02:58:01;;;;;;;5.93;5.30;;;;;;;;;;4919963;29;20190;-76
2023/09/13 03:00:27;;;;;;;8.93;5.43;;;;;;;;;;4916632;29;20316;-75
2023/09/13 03:02:53;;;;;;;6.67;5.40;;;;;;;;;;4918294;29;20194;-75
2023/09/13 03:05:20;;;;;;;6.40;5.77;;;;;;;;;;4916165;29;20201;-76
2023/09/13 03:07:46;;;;;;;6.33;5.17;;;;;;;;;;4914830;29;20191;-77
2023/09/13 03:10:13;;;;;;;6.03;5.33;;;;;;;;;;4916695;29;20596;-76
2023/09/13 03:12:39;;;;;;;6.87;5.30;;;;;;;;;;4914755;29;20195;-75
2023/09/13 03:15:08;;;;;;;6.40;5.00;;;;;;;;;;4919260;29;20191;-78
2023/09/13 03:17:35;;;;;;;5.57;5.00;;;;;;;;;;4957866;23;20705;-76
2023/09/13 03:20:01;;;;;;;5.07;4.67;;;;;;;;;;4927487;29;20253;-78
2023/09/13 03:22:28;;;;;;;5.70;4.73;;;;;;;;;;4928781;29;20185;-78
2023/09/13 03:24:54;;;;;;;5.47;4.97;;;;;;;;;;4927892;29;20272;-75
2023/09/13 03:27:21;;;;;;;6.40;5.40;;;;;;;;;;4960134;28;20696;-76
2023/09/13 03:29:47;;;;;;;7.03;5.50;;;;;;;;;;4949897;29;20181;-75
2023/09/13 03:32:13;;;;;;;5.90;5.30;;;;;;;;;;4949482;29;20181;-76
2023/09/13 03:34:39;;;;;;;5.93;5.33;;;;;;;;;;4951805;28;20236;-77
2023/09/13 03:37:07;;;;;;;5.90;5.20;;;;;;;;;;4954066;29;20220;-77
2023/09/13 03:39:34;;;;;;;6.50;5.63;;;;;;;;;;4951848;29;20204;-76
2023/09/13 03:42:01;;;;;;;5.67;5.00;;;;;;;;;;4941056;29;20237;-76
2023/09/13 03:44:28;;;;;;;6.43;5.80;;;;;;;;;;4938560;29;20194;-78
2023/09/13 03:46:55;;;;;;;6.10;5.50;;;;;;;;;;4949031;28;20228;-76
2023/09/13 03:49:22;;;;;;;6.60;6.00;;;;;;;;;;4958446;28;20348;-79
2023/09/13 03:51:48;;;;;;;7.77;6.03;;;;;;;;;;4950849;29;20190;-76
2023/09/13 03:54:14;;;;;;;6.03;5.53;;;;;;;;;;4954460;29;20607;-77
2023/09/13 03:56:41;;;;;;;6.73;6.00;;;;;;;;;;4948598;29;20205;-76
2023/09/13 03:59:07;;;;;;;5.90;5.40;;;;;;;;;;4947889;28;20185;-76
2023/09/13 04:01:33;;;;;;;7.40;5.43;;;;;;;;;;4947945;28;20189;-79
2023/09/13 04:03:59;;;;;;;6.67;5.57;;;;;;;;;;4950957;28;20186;-78
2023/09/13 04:06:25;;;;;;;6.70;6.10;;;;;;;;;;4953049;28;20495;-76
2023/09/13 04:08:52;;;;;;;6.70;6.10;;;;;;;;;;4957185;28;20181;-76
2023/09/13 04:11:18;;;;;;;6.67;5.80;;;;;;;;;;4956132;28;20208;-76
2023/09/13 04:13:44;;;;;;;5.87;5.37;;;;;;;;;;4951986;28;20189;-76
2023/09/13 04:16:13;;;;;;;6.03;5.53;;;;;;;;;;4934536;29;20226;-76
2023/09/13 04:18:39;;;;;;;6.57;5.80;;;;;;;;;;4956225;28;20184;-77
2023/09/13 04:21:06;;;;;;;6.10;5.50;;;;;;;;;;4960078;28;20225;-76
2023/09/13 04:23:32;;;;;;;6.30;5.70;;;;;;;;;;4956217;28;20186;-76
2023/09/13 04:25:58;;;;;;;7.23;6.60;;;;;;;;;;4957513;28;20571;-78
2023/09/13 04:28:25;;;;;;;6.47;5.87;;;;;;;;;;4957941;28;20216;-76
2023/09/13 04:30:52;;;;;;;6.67;6.00;;;;;;;;;;4953580;28;20608;-76
2023/09/13 04:33:20;;;;;;;6.93;6.33;;;;;;;;;;4954947;28;20193;-76
2023/09/13 04:35:46;;;;;;;6.50;5.90;;;;;;;;;;4955017;28;20723;-75
2023/09/13 04:38:13;;;;;;;6.37;5.53;;;;;;;;;;4940696;28;20193;-78
2023/09/13 04:40:43;;;;;;;6.67;5.93;;;;;;;;;;4935863;29;20577;-78
2023/09/13 04:43:09;;;;;;;6.50;5.90;;;;;;;;;;4958204;28;20572;-76
2023/09/13 04:45:37;;;;;;;6.03;5.53;;;;;;;;;;4933459;29;20212;-76
2023/09/13 04:48:03;;;;;;;6.40;5.80;;;;;;;;;;4952835;28;20551;-76
2023/09/13 04:50:29;;;;;;;6.60;5.83;;;;;;;;;;4955983;28;20646;-76
2023/09/13 04:52:56;;;;;;;7.13;6.43;;;;;;;;;;4947350;29;20604;-76
2023/09/13 04:55:23;;;;;;;7.13;6.43;;;;;;;;;;4936488;29;20260;-77
2023/09/13 04:57:50;;;;;;;6.47;5.90;;;;;;;;;;4958896;28;20587;-76
2023/09/13 05:00:17;;;;;;;6.97;6.00;;;;;;;;;;4935321;28;20251;-76
2023/09/13 05:02:43;;;;;;;9.43;5.93;;;;;;;;;;4951834;28;20224;-76
2023/09/13 05:05:09;;;;;;;6.50;5.90;;;;;;;;;;4951197;28;20181;-77
2023/09/13 05:07:36;;;;;;;6.60;6.00;;;;;;;;;;4952640;28;20208;-76
2023/09/13 05:10:02;;;;;;;6.70;6.00;;;;;;;;;;4955983;28;20252;-76
2023/09/13 05:12:28;;;;;;;7.20;6.47;;;;;;;;;;4955236;28;20211;-76
2023/09/13 05:14:54;;;;;;;6.50;5.90;;;;;;;;;;4951383;28;20189;-78
2023/09/13 05:17:20;;;;;;;7.27;6.57;;;;;;;;;;4954024;28;20256;-78
2023/09/13 05:19:46;;;;;;;7.97;6.73;;;;;;;;;;4949887;28;20216;-77
2023/09/13 05:22:12;;;;;;;6.80;6.20;;;;;;;;;;4955719;28;20192;-81
2023/09/13 05:24:38;;;;;;;6.90;6.10;;;;;;;;;;4950660;28;20197;-78
2023/09/13 05:27:05;;;;;;;8.77;6.60;;;;;;;;;;4939467;29;20248;-78
2023/09/13 05:29:31;;;;;;;6.53;5.93;;;;;;;;;;4943534;28;20272;-79
2023/09/13 05:31:57;;;;;;;7.07;6.17;;;;;;;;;;4951176;28;20189;-79
2023/09/13 05:34:23;;;;;;;8.83;6.40;;;;;;;;;;4933376;28;20287;-79
2023/09/13 05:36:49;;;;;;;7.00;6.30;;;;;;;;;;4949398;28;20589;-79
2023/09/13 05:39:15;;;;;;;7.50;6.80;;;;;;;;;;4947920;29;20210;-79
2023/09/13 05:41:42;;;;;;;7.10;6.40;;;;;;;;;;4951266;29;20193;-79
2023/09/13 05:44:11;;;;;;;6.53;6.00;;;;;;;;;;4953990;28;20253;-81
2023/09/13 05:46:38;;;;;;;7.00;6.30;;;;;;;;;;4955520;28;20235;-79
2023/09/13 05:49:05;;;;;;;7.47;6.67;;;;;;;;;;4939967;28;20182;-79
2023/09/13 05:51:31;;;;;;;6.90;6.20;;;;;;;;;;4954302;28;20275;-79
2023/09/13 05:53:57;;;;;;;7.20;6.53;;;;;;;;;;4937666;29;20186;-77
2023/09/13 05:56:23;;;;;;;8.03;7.23;;;;;;;;;;4949890;28;20264;-81
2023/09/13 05:58:50;;;;;;;6.90;6.30;;;;;;;;;;4964307;28;20200;-80
2023/09/13 06:01:17;;;;;;;7.17;6.53;;;;;;;;;;4975274;28;20650;-79
2023/09/13 06:03:43;;;;;;;6.47;5.87;;;;;;;;;;4961793;28;20189;-80
2023/09/13 06:06:11;;;;;;;6.43;5.80;;;;;;;;;;4948883;28;20279;-85
2023/09/13 06:08:37;;;;;;;7.30;5.97;;;;;;;;;;4950656;28;20196;-81
2023/09/13 06:11:03;;;;;;;6.73;6.03;;;;;;;;;;4956709;28;20243;-82
2023/09/13 06:13:29;;;;;;;7.37;5.97;;;;;;;;;;4942308;28;20216;-82
2023/09/13 06:15:55;;;;;;;7.90;5.97;;;;;;;;;;4944455;28;20280;-84
2023/09/13 06:18:23;;;;;;;6.70;6.03;;;;;;;;;;4944210;28;20200;-84
2023/09/13 06:20:49;;;;;;;6.77;6.17;;;;;;;;;;4940207;29;20205;-84
2023/09/13 06:23:34;;;;;;;6.50;5.90;;;;;;;;;;4940985;28;20191;-81
2023/09/13 06:26:01;;;;;;;6.87;6.27;;;;;;;;;;4940479;29;20553;-84
2023/09/13 06:28:27;;;;;;;9.73;6.60;;;;;;;;;;4935862;28;20675;-83
2023/09/13 06:30:53;;;;;;;6.43;5.83;;;;;;;;;;4969283;28;20193;-83
2023/09/13 06:33:20;;;;;;;6.80;6.10;;;;;;;;;;4941078;29;20204;-84
2023/09/13 06:35:46;;;;;;;7.20;6.50;;;;;;;;;;4926230;28;20201;-83
2023/09/13 06:38:13;;;;;;;8.93;6.33;;;;;;;;;;4943150;29;20313;-84
2023/09/13 06:40:43;;;;;;;6.83;6.23;;;;;;;;;;4929289;29;20717;-84
2023/09/13 06:43:13;;;;;;;6.67;5.97;;;;;;;;;;4962724;28;20212;-84
2023/09/13 06:45:39;;;;;;;6.70;5.67;;;;;;;;;;4925088;29;20197;-84
2023/09/13 06:48:05;;;;;;;6.67;5.97;;;;;;;;;;4925977;29;20283;-83
2023/09/13 06:50:31;;;;;;;7.50;5.87;;;;;;;;;;4934708;29;20189;-83
2023/09/13 06:52:57;;;;;;;7.73;6.40;;;;;;;;;;4938326;28;20676;-83
2023/09/13 06:55:23;;;;;;;7.83;6.30;;;;;;;;;;4941886;28;20231;-83
2023/09/13 06:57:51;;;;;;;7.00;6.30;;;;;;;;;;4931355;29;20217;-83
2023/09/13 07:00:17;;;;;;;7.00;6.40;;;;;;;;;;4934014;28;20613;-82
2023/09/13 07:02:43;;;;;;;6.73;6.07;;;;;;;;;;4939246;29;20196;-83
2023/09/13 07:05:10;;;;;;;6.40;5.80;;;;;;;;;;4956281;28;20184;-84
2023/09/13 07:07:36;;;;;;;7.10;6.40;;;;;;;;;;4935883;29;20236;-84
2023/09/13 07:10:05;;;;;;;7.73;6.70;;;;;;;;;;4951127;28;20309;-83
2023/09/13 07:12:31;;;;;;;7.03;6.43;;;;;;;;;;4971617;28;20220;-83
2023/09/13 07:14:57;;;;;;;6.40;5.80;;;;;;;;;;4962948;28;20194;-83
2023/09/13 07:17:23;;;;;;;8.43;6.50;;;;;;;;;;4937032;29;20719;-83
2023/09/13 07:19:49;;;;;;;7.47;6.77;;;;;;;;;;4955476;28;20280;-83
2023/09/13 07:22:15;;;;;;;7.07;6.37;;;;;;;;;;4958544;28;20231;-84
2023/09/13 07:24:41;;;;;;;6.43;5.70;;;;;;;;;;4947347;28;20190;-84
2023/09/13 07:27:07;;;;;;;6.67;6.07;;;;;;;;;;4935110;29;20212;-84
2023/09/13 07:29:33;;;;;;;6.53;5.93;;;;;;;;;;4960604;28;20305;-83
2023/09/13 07:32:02;;;;;;;8.23;6.13;;;;;;;;;;4975996;28;20283;-83
2023/09/13 07:34:29;;;;;;;6.90;5.67;;;;;;;;;;4950140;28;20193;-83
2023/09/13 07:36:55;;;;;;;6.97;6.27;;;;;;;;;;4935807;28;20216;-83
2023/09/13 07:39:21;;;;;;;8.07;5.67;;;;;;;;;;4939873;29;20747;-83
2023/09/13 07:41:47;;;;;;;8.07;6.27;;;;;;;;;;4920853;28;20193;-83
2023/09/13 07:44:13;;;;;;;6.27;5.67;;;;;;;;;;4946468;28;20189;-83
2023/09/13 07:46:39;;;;;;;6.80;5.33;;;;;;;;;;4969194;28;20590;-83
2023/09/13 07:49:05;;;;;;;6.40;5.50;;;;;;;;;;4928262;29;20221;-83
2023/09/13 07:51:31;;;;;;;7.43;6.53;;;;;;;;;;4948088;28;20191;-84
2023/09/13 07:54:03;;;;;;;7.97;5.60;;;;;;;;;;4974062;28;20276;-83
2023/09/13 07:56:30;;;;;;;7.03;6.33;;;;;;;;;;4954551;28;20201;-83
2023/09/13 07:58:57;;;;;;;6.27;5.50;;;;;;;;;;4953467;28;20177;-83
2023/09/13 08:01:23;;;;;;;5.87;5.13;;;;;;;;;;4953120;28;20261;-83
2023/09/13 08:03:49;;;;;;;6.57;5.87;;;;;;;;;;4951165;28;20192;-84
2023/09/13 08:06:16;;;;;;;9.43;5.33;;;;;;;;;;4951233;29;20205;-84
2023/09/13 08:08:42;;;;;;;6.70;5.97;;;;;;;;;;4952048;29;20193;-84
2023/09/13 08:11:08;;;;;;;7.30;5.90;;;;;;;;;;4956583;28;20184;-84
2023/09/13 08:13:34;;;;;;;6.07;5.47;;;;;;;;;;4931710;28;20283;-83
2023/09/13 08:16:00;;;;;;;7.57;5.83;;;;;;;;;;4940216;29;20677;-84
2023/09/13 08:18:26;;;;;;;7.30;6.10;;;;;;;;;;4957085;28;20194;-83
2023/09/13 08:20:52;;;;;;;6.33;5.73;;;;;;;;;;4941969;29;20221;-84
2023/09/13 08:23:19;;;;;;;6.17;5.57;;;;;;;;;;4952730;28;20178;-84
2023/09/13 08:25:45;;;;;;;5.70;5.20;;;;;;;;;;4926751;29;20186;-84
2023/09/13 08:28:11;;;;;;;6.20;5.60;;;;;;;;;;4940939;29;20190;-84
2023/09/13 08:30:37;;;;;;;7.27;5.10;;;;;;;;;;4938956;29;20607;-83
2023/09/13 08:33:04;;;;;;;9.97;5.70;;;;;;;;;;4925363;28;20186;-83
2023/09/13 08:35:31;;;;;;;6.63;5.63;;;;;;;;;;4963186;28;20191;-84
2023/09/13 08:37:57;;;;;;;8.03;5.90;;;;;;;;;;4956060;28;20219;-83
2023/09/13 08:40:24;;;;;;;6.83;6.13;;;;;;;;;;4927081;29;20224;-84
2023/09/13 08:42:51;;;;;;;6.43;5.60;;;;;;;;;;4939636;29;20194;-83
2023/09/13 08:45:18;;;;;;;6.00;5.40;;;;;;;;;;4936300;29;20186;-83
2023/09/13 08:47:45;;;;;;;6.47;5.20;;;;;;;;;;4943794;29;20211;-84
2023/09/13 08:50:11;;;;;;;6.57;4.77;;;;;;;;;;4947252;29;20194;-83
2023/09/13 08:52:39;;;;;;;6.33;5.57;;;;;;;;;;4940471;28;20226;-84
2023/09/13 08:55:07;;;;;;;6.60;5.67;;;;;;;;;;4957250;28;20269;-84
2023/09/13 08:57:34;;;;;;;9.23;5.57;;;;;;;;;;4952883;28;20704;-84
2023/09/13 09:00:00;;;;;;;6.73;5.50;;;;;;;;;;4949482;28;20217;-85
2023/09/13 09:02:28;;;;;;;5.67;5.17;;;;;;;;;;4946213;28;20176;-88
2023/09/13 09:04:56;;;;;;;6.97;5.03;;;;;;;;;;4944624;28;20217;-86
2023/09/13 09:07:22;;;;;;;5.77;5.13;;;;;;;;;;4936704;29;20206;-87
2023/09/13 09:09:49;;;;;;;6.20;5.60;;;;;;;;;;4922826;29;20608;-87
2023/09/13 09:12:19;;;;;;;5.37;4.87;;;;;;;;;;4929650;28;20289;-87
2023/09/13 09:14:46;;;;;;;7.63;5.80;;;;;;;;;;4930161;29;20664;-86
2023/09/13 09:17:14;;;;;;;6.13;5.50;;;;;;;;;;4936005;28;20219;-85
2023/09/13 09:19:40;;;;;;;8.73;5.43;;;;;;;;;;4951606;28;20617;-86
2023/09/13 09:22:08;;;;;;;5.70;5.13;;;;;;;;;;4934722;28;20189;-88
2023/09/13 09:24:34;;;;;;;5.70;5.03;;;;;;;;;;4944952;28;20682;-87
2023/09/13 09:27:00;;;;;;;6.47;4.97;;;;;;;;;;4929874;28;20205;-87
2023/09/13 09:29:45;;;;;;;7.33;5.90;;;;;;;;;;4941005;29;20208;-86
2023/09/13 09:32:12;;;;;;;6.20;5.60;;;;;;;;;;4923967;28;20189;-88
2023/09/13 09:34:40;;;;;;;7.07;5.77;;;;;;;;;;4939328;29;20641;-87
2023/09/13 09:37:07;;;;;;;5.67;5.17;;;;;;;;;;4951139;29;20235;-86
2023/09/13 09:39:41;;;;;;;5.30;4.80;;;;;;;;;;4954749;28;20220;-87
2023/09/13 09:42:07;;;;;;;7.87;5.40;;;;;;;;;;4936317;29;20188;-87
2023/09/13 09:44:33;;;;;;;5.70;5.10;;;;;;;;;;4946067;28;20564;-88
2023/09/13 09:46:59;;;;;;;6.87;5.37;;;;;;;;;;4928818;29;20693;-88
2023/09/13 09:49:26;;;;;;;7.47;5.00;;;;;;;;;;4929147;28;20246;-88
2023/09/13 09:51:52;;;;;;;7.20;4.77;;;;;;;;;;4936179;29;20203;-87
2023/09/13 09:54:18;;;;;;;5.50;4.90;;;;;;;;;;4945446;28;20242;-88
2023/09/13 09:56:44;;;;;;;14.80;7.30;;;;;;;;;;4945687;28;20219;-88
2023/09/13 09:59:10;;;;;;;10.50;6.27;;;;;;;;;;4948683;28;20187;-87
2023/09/13 10:01:40;;;;;;;8.30;5.50;;;;;;;;;;4941097;28;20199;-87
2023/09/13 10:04:10;;;;;;;10.20;6.23;;;;;;;;;;4943411;28;20196;-86
2023/09/13 10:06:37;;;;;;;8.17;5.30;;;;;;;;;;4942114;28;20288;-88
2023/09/13 10:09:04;;;;;;;9.63;5.63;;;;;;;;;;4922158;28;20202;-86
2023/09/13 10:11:30;;;;;;;8.57;5.33;;;;;;;;;;4952687;28;20197;-85
2023/09/13 10:13:56;;;;;;;6.23;4.60;;;;;;;;;;4935213;29;20278;-84
2023/09/13 10:16:26;;;;;;;6.30;5.10;;;;;;;;;;4918082;29;20240;-86
2023/09/13 10:18:54;;;;;;;6.10;4.40;;;;;;;;;;4950776;28;20666;-86
2023/09/13 10:21:24;;;;;;;6.30;4.53;;;;;;;;;;4948526;28;20304;-88
2023/09/13 10:23:53;;;;;;;5.97;4.40;;;;;;;;;;4940500;29;20638;-86
2023/09/13 10:26:21;;;;;;;11.07;5.67;;;;;;;;;;4939264;29;20298;-86
2023/09/13 10:28:49;;;;;;;6.60;5.00;;;;;;;;;;4944304;28;20186;-86
2023/09/13 10:31:17;;;;;;;6.60;5.40;;;;;;;;;;4942926;28;20207;-87
2023/09/13 10:33:53;;;;;;;5.33;4.83;;;;;;;;;;4934842;29;20189;-86
2023/09/13 10:36:28;;;;;;;5.03;4.53;;;;;;;;;;4929707;28;20217;-86
2023/09/13 10:39:09;;;;;;;6.63;4.67;;;;;;;;;;4954166;28;20605;-87
2023/09/13 10:41:39;;;;;;;7.50;5.17;;;;;;;;;;4952720;28;20188;-86
2023/09/13 10:44:06;;;;;;;4.77;4.37;;;;;;;;;;4941142;28;20181;-86
2023/09/13 10:46:32;;;;;;;4.60;4.20;;;;;;;;;;4982523;28;20211;-86
2023/09/13 10:48:59;;;;;;;6.20;4.27;;;;;;;;;;4946207;28;20245;-86
2023/09/13 10:51:25;;;;;;;5.10;4.60;;;;;;;;;;4936059;29;20291;-86
2023/09/13 10:53:52;;;;;;;6.57;4.13;;;;;;;;;;4934939;29;20496;-85
2023/09/13 10:56:19;;;;;;;4.73;4.20;;;;;;;;;;4950203;29;20690;-85
2023/09/13 10:58:46;;;;;;;5.10;4.30;;;;;;;;;;4948147;28;20227;-82
2023/09/13 11:01:14;;;;;;;5.13;4.50;;;;;;;;;;4964991;28;20215;-87
2023/09/13 11:03:42;;;;;;;4.60;4.20;;;;;;;;;;4945431;29;20194;-85
2023/09/13 11:06:09;;;;;;;5.17;4.17;;;;;;;;;;4945772;28;20331;-87
2023/09/13 11:08:35;;;;;;;5.07;4.30;;;;;;;;;;4945358;29;20668;-88
2023/09/13 11:11:08;;;;;;;5.27;4.30;;;;;;;;;;4944911;28;20220;-85
2023/09/13 11:13:35;;;;;;;4.67;4.27;;;;;;;;;;4946827;28;20231;-87
2023/09/13 11:16:03;;;;;;;4.63;4.10;;;;;;;;;;4963669;28;20252;-82
2023/09/13 11:18:30;;;;;;;4.67;4.23;;;;;;;;;;4969282;28;20291;-83
2023/09/13 11:20:56;;;;;;;5.30;4.30;;;;;;;;;;4942402;29;20236;-83
2023/09/13 11:23:23;;;;;;;5.73;3.93;;;;;;;;;;4936102;29;20206;-84
2023/09/13 11:25:50;;;;;;;8.10;3.90;;;;;;;;;;4954340;29;20200;-88
2023/09/13 11:28:30;;;;;;;5.07;4.17;;;;;;;;;;4948034;28;20192;-88
2023/09/13 11:30:57;;;;;;;5.03;3.80;;;;;;;;;;4938807;29;20196;-88
2023/09/13 11:33:23;;;;;;;5.23;4.23;;;;;;;;;;4934785;29;20284;-87
2023/09/13 11:35:51;;;;;;;4.30;3.90;;;;;;;;;;4968595;28;20256;-88
2023/09/13 11:38:17;;;;;;;4.23;3.83;;;;;;;;;;4981040;28;20204;-88
2023/09/13 11:40:47;;;;;;;3.93;3.60;;;;;;;;;;4938722;29;20221;-87
2023/09/13 11:43:21;;;;;;;4.73;4.10;;;;;;;;;;4925399;28;20199;-89
2023/09/13 11:45:49;;;;;;;3.83;3.43;;;;;;;;;;4951614;28;20210;-90
2023/09/13 11:48:29;;;;;;;4.23;3.30;;;;;;;;;;4909714;29;20638;-90
2023/09/13 11:50:56;;;;;;;4.00;3.60;;;;;;;;;;4922893;28;20194;-88
2023/09/13 11:53:28;;;;;;;4.33;3.80;;;;;;;;;;4946316;28;20188;-87
2023/09/13 11:55:56;;;;;;;5.20;3.70;;;;;;;;;;4948337;28;20200;-86
2023/09/13 11:58:40;;;;;;;4.53;3.87;;;;;;;;;;4979900;28;20204;-86
2023/09/13 12:01:07;;;;;;;4.03;3.63;;;;;;;;;;4938667;28;20227;-87
2023/09/13 12:03:39;;;;;;;4.33;3.50;;;;;;;;;;4957041;28;20236;-86
2023/09/13 12:06:05;;;;;;;3.73;3.43;;;;;;;;;;4945725;28;20252;-87
2023/09/13 12:08:34;;;;;;;3.57;3.27;;;;;;;;;;4925417;29;20237;-84
2023/09/13 12:11:10;;;;;;;3.80;3.50;;;;;;;;;;4920300;29;20283;-89
2023/09/13 12:13:47;;;;;;;3.40;3.10;;;;;;;;;;4930428;28;20200;-87
2023/09/13 12:16:14;;;;;;;4.47;3.33;;;;;;;;;;4960692;28;20208;-87
2023/09/13 12:18:42;;;;;;;3.40;3.10;;;;;;;;;;4946978;28;20230;-87
2023/09/13 12:21:09;;;;;;;3.40;3.10;;;;;;;;;;4938779;29;20225;-87
2023/09/13 12:23:36;;;;;;;3.70;3.40;;;;;;;;;;4938730;28;20209;-86
2023/09/13 12:26:06;;;;;;;4.53;3.27;;;;;;;;;;4953328;29;20208;-86
2023/09/13 12:28:35;;;;;;;5.43;3.43;;;;;;;;;;4969520;28;20189;-86
2023/09/13 12:31:09;;;;;;;3.60;3.30;;;;;;;;;;4932129;28;20270;-86
2023/09/13 12:33:37;;;;;;;4.63;3.23;;;;;;;;;;4926910;29;20189;-86
2023/09/13 12:36:03;;;;;;;3.23;3.00;;;;;;;;;;4941482;29;20227;-86
2023/09/13 12:38:49;;;;;;;3.57;3.27;;;;;;;;;;4945699;28;20188;-87
2023/09/13 12:41:19;;;;;;;3.87;3.03;;;;;;;;;;4951904;28;20326;-87
2023/09/13 12:43:48;;;;;;;3.30;3.10;;;;;;;;;;4938218;29;20195;-87
2023/09/13 12:46:17;;;;;;;2.77;2.57;;;;;;;;;;4934725;28;20577;-87
2023/09/13 12:48:43;;;;;;;3.73;3.40;;;;;;;;;;4950406;28;20200;-87
2023/09/13 12:51:10;;;;;;;4.70;3.27;;;;;;;;;;4939739;29;20245;-87
2023/09/13 12:53:37;;;;;;;3.60;3.30;;;;;;;;;;4942227;29;20198;-86
2023/09/13 12:56:03;;;;;;;3.47;3.00;;;;;;;;;;4927131;29;20212;-87
2023/09/13 12:58:30;;;;;;;4.57;3.77;;;;;;;;;;4944492;28;20261;-85
2023/09/13 13:00:57;;;;;;;3.63;3.23;;;;;;;;;;4920780;29;20281;-87
2023/09/13 13:03:25;;;;;;;3.70;3.37;;;;;;;;;;4937110;29;20210;-86
2023/09/13 13:05:55;;;;;;;3.47;3.17;;;;;;;;;;4957845;28;20193;-87
2023/09/13 13:08:32;;;;;;;4.40;3.47;;;;;;;;;;4943484;29;20197;-83
2023/09/13 13:11:00;;;;;;;3.93;3.27;;;;;;;;;;4938757;28;20201;-83
2023/09/13 13:13:39;;;;;;;3.87;3.20;;;;;;;;;;4948486;29;20562;-82
2023/09/13 13:16:18;;;;;;;3.70;3.40;;;;;;;;;;4943151;29;20212;-80
2023/09/13 13:18:52;;;;;;;4.80;3.77;;;;;;;;;;4953593;29;20195;-80
2023/09/13 13:21:19;;;;;;;5.03;4.30;;;;;;;;;;4962489;28;20790;-80
2023/09/13 13:23:47;;;;;;;4.77;4.33;;;;;;;;;;4984391;28;20208;-81
2023/09/13 13:26:14;;;;;;;3.80;3.50;;;;;;;;;;4942801;28;20252;-80
2023/09/13 13:28:40;;;;;;;3.57;3.20;;;;;;;;;;4975353;28;20208;-80
2023/09/13 13:31:07;;;;;;;4.43;3.20;;;;;;;;;;4958788;28;20212;-80
2023/09/13 13:33:35;;;;;;;3.67;3.37;;;;;;;;;;4959083;28;20200;-80
2023/09/13 13:36:01;;;;;;;4.17;3.40;;;;;;;;;;4948184;28;20255;-81
2023/09/13 13:38:27;;;;;;;4.33;4.00;;;;;;;;;;4947911;29;20208;-80
2023/09/13 13:41:04;;;;;;;4.10;3.70;;;;;;;;;;4973080;28;20632;-82
2023/09/13 13:43:31;;;;;;;4.00;3.70;;;;;;;;;;4938727;29;20279;-85
2023/09/13 13:45:58;;;;;;;3.97;3.50;;;;;;;;;;4962304;28;20190;-83
2023/09/13 13:48:24;;;;;;;4.53;3.40;;;;;;;;;;4960824;28;20199;-83
2023/09/13 13:50:50;;;;;;;3.70;3.40;;;;;;;;;;4947465;29;20249;-84
2023/09/13 13:53:16;;;;;;;5.37;3.07;;;;;;;;;;4964737;28;20240;-83
2023/09/13 13:55:42;;;;;;;3.60;2.70;;;;;;;;;;4975479;28;20260;-83
2023/09/13 13:58:09;;;;;;;3.30;3.00;;;;;;;;;;4964005;28;20242;-83
2023/09/13 14:00:35;;;;;;;3.80;3.13;;;;;;;;;;4943228;29;20220;-83
2023/09/13 14:03:01;;;;;;;3.00;2.80;;;;;;;;;;4955419;29;20714;-83
2023/09/13 14:05:28;;;;;;;3.30;2.97;;;;;;;;;;4963721;28;20215;-83
2023/09/13 14:07:55;;;;;;;3.60;3.07;;;;;;;;;;4959912;28;20291;-84
2023/09/13 14:10:21;;;;;;;4.33;3.10;;;;;;;;;;4945659;29;20263;-81
2023/09/13 14:12:48;;;;;;;3.10;2.90;;;;;;;;;;4938917;29;20201;-81
2023/09/13 14:15:14;;;;;;;3.10;2.90;;;;;;;;;;4940885;29;20260;-81
2023/09/13 14:17:41;;;;;;;4.10;2.90;;;;;;;;;;4962271;28;20245;-81
2023/09/13 14:20:07;;;;;;;2.83;2.53;;;;;;;;;;4944700;29;20213;-81
2023/09/13 14:22:33;;;;;;;3.30;2.50;;;;;;;;;;4955841;29;20192;-81
2023/09/13 14:25:00;;;;;;;3.53;2.47;;;;;;;;;;4955177;29;20193;-81
2023/09/13 14:27:26;;;;;;;3.60;2.60;;;;;;;;;;4945625;28;20235;-82
2023/09/13 14:29:52;;;;;;;3.60;2.83;;;;;;;;;;4977219;28;20197;-81
2023/09/13 14:32:19;;;;;;;2.87;2.57;;;;;;;;;;4978742;28;20286;-81
2023/09/13 14:34:52;;;;;;;3.80;3.00;;;;;;;;;;4940956;29;20201;-81
2023/09/13 14:37:19;;;;;;;3.03;2.73;;;;;;;;;;4978364;28;20212;-81
2023/09/13 14:39:45;;;;;;;3.30;3.00;;;;;;;;;;4925607;29;20244;-82
2023/09/13 14:42:11;;;;;;;4.33;2.80;;;;;;;;;;4958541;28;20231;-82
2023/09/13 14:44:39;;;;;;;2.97;2.70;;;;;;;;;;4955925;28;20219;-82